Time;durP1;ratioP1;P1;durP2;ratioP2;P2;SDS_P1;SDS_P2;PMS_P1;PMS_P2;Temp;Humidity;BMP_temperature;BMP_pressure;BME280_temperature;BME280_humidity;BME280_pressure;Samples;Min_cycle;Max_cycle;Signal;HPM_P1;HPM_P2
2022/07/09 00:00:54;;;;;;;2.03;1.30;;;22.90;61.00;;;;;;2091938;28;20036;-83
2022/07/09 00:01:55;;;;;;;2.35;1.60;;;22.90;60.80;;;;;;2092191;28;20025;-83
2022/07/09 00:02:55;;;;;;;2.43;1.27;;;23.00;61.00;;;;;;2092194;28;20032;-83
2022/07/09 00:03:56;;;;;;;2.57;1.30;;;23.00;60.80;;;;;;2092077;28;20021;-83
2022/07/09 00:04:57;;;;;;;3.50;2.00;;;22.90;60.80;;;;;;2091365;28;20040;-83
2022/07/09 00:05:58;;;;;;;2.00;1.17;;;22.90;60.70;;;;;;2100311;28;20170;-83
2022/07/09 00:07:00;;;;;;;1.93;1.37;;;22.90;60.90;;;;;;2100292;28;20032;-84
2022/07/09 00:08:00;;;;;;;2.78;1.60;;;22.90;60.80;;;;;;2092042;28;20067;-84
2022/07/09 00:09:01;;;;;;;1.67;1.30;;;22.90;60.80;;;;;;2083743;28;20044;-83
2022/07/09 00:10:02;;;;;;;1.87;1.30;;;22.90;60.90;;;;;;2088105;28;20025;-83
2022/07/09 00:11:03;;;;;;;1.88;1.35;;;22.90;60.70;;;;;;2084894;28;20030;-85
2022/07/09 00:12:04;;;;;;;2.10;1.33;;;22.90;60.70;;;;;;2092009;28;20025;-84
2022/07/09 00:13:05;;;;;;;3.50;1.10;;;22.90;60.70;;;;;;2092050;28;20043;-83
2022/07/09 00:14:06;;;;;;;1.60;1.10;;;22.90;60.70;;;;;;2092065;28;20029;-84
2022/07/09 00:15:07;;;;;;;3.77;1.00;;;22.80;60.80;;;;;;2100166;28;20024;-83
2022/07/09 00:16:08;;;;;;;4.20;1.30;;;22.80;60.80;;;;;;2085419;28;20033;-84
2022/07/09 00:17:09;;;;;;;1.67;1.30;;;22.80;60.80;;;;;;2083805;28;20048;-84
2022/07/09 00:18:10;;;;;;;2.00;1.17;;;22.70;60.50;;;;;;2091618;28;20417;-84
2022/07/09 00:19:10;;;;;;;1.70;1.40;;;22.80;60.80;;;;;;2093863;28;20772;-85
2022/07/09 00:20:11;;;;;;;1.47;1.10;;;22.80;60.80;;;;;;2098975;28;20031;-84
2022/07/09 00:21:12;;;;;;;1.70;1.10;;;22.80;60.60;;;;;;2092076;28;20029;-83
2022/07/09 00:22:13;;;;;;;1.87;1.23;;;22.80;60.60;;;;;;2091958;28;20053;-84
2022/07/09 00:23:14;;;;;;;2.20;1.30;;;22.70;60.70;;;;;;2087792;28;20362;-82
2022/07/09 00:24:15;;;;;;;2.93;1.20;;;22.80;60.60;;;;;;2074698;28;20095;-84
2022/07/09 00:25:15;;;;;;;3.63;1.20;;;22.70;60.60;;;;;;2083590;28;20460;-84
2022/07/09 00:26:18;;;;;;;1.30;1.10;;;22.70;60.40;;;;;;2089196;28;20111;-83
2022/07/09 00:27:19;;;;;;;2.00;1.00;;;22.70;60.60;;;;;;2092032;28;20037;-83
2022/07/09 00:28:19;;;;;;;1.27;1.10;;;22.70;60.60;;;;;;2083546;28;20483;-83
2022/07/09 00:29:20;;;;;;;1.23;1.07;;;22.70;60.60;;;;;;2083633;28;20040;-83
2022/07/09 00:30:21;;;;;;;3.43;1.40;;;22.70;60.60;;;;;;2090182;28;20366;-84
2022/07/09 00:31:22;;;;;;;2.47;1.43;;;22.80;60.50;;;;;;2099516;28;20071;-84
2022/07/09 00:32:22;;;;;;;3.43;1.50;;;22.80;60.60;;;;;;2091932;28;20035;-84
2022/07/09 00:33:23;;;;;;;3.23;1.40;;;22.80;60.60;;;;;;2087031;28;20028;-83
2022/07/09 00:34:24;;;;;;;3.67;1.30;;;22.80;60.50;;;;;;2085426;28;20029;-83
2022/07/09 00:35:25;;;;;;;2.23;1.40;;;22.80;60.50;;;;;;2098180;28;20445;-84
2022/07/09 00:36:26;;;;;;;4.03;1.50;;;22.80;60.40;;;;;;2092621;28;20412;-84
2022/07/09 00:37:26;;;;;;;2.50;1.67;;;22.80;60.40;;;;;;2091898;28;20064;-83
2022/07/09 00:38:27;;;;;;;1.67;1.47;;;22.70;60.60;;;;;;2086272;28;20024;-84
2022/07/09 00:39:28;;;;;;;3.13;1.30;;;22.70;60.60;;;;;;2100178;28;20029;-83
2022/07/09 00:40:29;;;;;;;1.97;1.30;;;22.70;60.60;;;;;;2106401;28;20024;-83
2022/07/09 00:41:30;;;;;;;2.67;1.43;;;22.80;60.80;;;;;;2091746;28;20025;-83
2022/07/09 00:42:31;;;;;;;2.83;1.37;;;22.80;60.60;;;;;;2091822;28;20044;-84
2022/07/09 00:43:32;;;;;;;2.70;1.48;;;22.80;60.70;;;;;;2092096;28;20025;-84
2022/07/09 00:44:33;;;;;;;1.70;1.40;;;22.70;60.40;;;;;;2107773;28;20067;-83
2022/07/09 00:45:34;;;;;;;3.60;1.23;;;22.70;60.60;;;;;;2099506;28;20078;-83
2022/07/09 00:46:35;;;;;;;6.97;1.47;;;22.70;60.60;;;;;;2092262;28;20379;-83
2022/07/09 00:47:36;;;;;;;1.30;1.10;;;22.70;60.50;;;;;;2091975;28;20021;-83
2022/07/09 00:48:37;;;;;;;2.30;1.35;;;22.70;60.60;;;;;;2083489;28;20079;-83
2022/07/09 00:49:40;;;;;;;1.87;1.10;;;22.70;60.60;;;;;;2083064;28;20119;-83
2022/07/09 00:50:43;;;;;;;3.72;1.70;;;22.70;60.60;;;;;;2083829;28;20021;-84
2022/07/09 00:51:44;;;;;;;2.45;1.58;;;22.70;60.60;;;;;;2091976;28;20033;-83
2022/07/09 00:52:46;;;;;;;3.47;1.50;;;22.70;60.60;;;;;;2099527;28;20048;-82
2022/07/09 00:53:50;;;;;;;2.33;1.60;;;22.70;60.70;;;;;;2099797;28;20028;-83
2022/07/09 00:54:51;;;;;;;2.92;1.58;;;22.70;60.50;;;;;;2100384;28;20029;-83
2022/07/09 00:55:54;;;;;;;3.72;1.55;;;22.60;60.40;;;;;;2098235;28;20025;-84
2022/07/09 00:56:55;;;;;;;2.17;1.27;;;22.60;60.60;;;;;;2093354;28;20024;-84
2022/07/09 00:57:56;;;;;;;3.10;1.20;;;22.60;60.50;;;;;;2090497;28;20111;-83
2022/07/09 00:58:58;;;;;;;1.58;1.20;;;22.60;60.60;;;;;;2098683;28;20040;-83
2022/07/09 01:00:00;;;;;;;2.80;1.30;;;22.70;60.60;;;;;;2100029;28;20123;-84
2022/07/09 01:01:02;;;;;;;2.78;1.60;;;22.60;60.60;;;;;;2092813;28;20414;-84
2022/07/09 01:02:04;;;;;;;3.25;1.20;;;22.60;60.50;;;;;;2095607;28;20355;-83
2022/07/09 01:03:05;;;;;;;1.85;1.20;;;22.60;60.60;;;;;;2093348;28;20029;-83
2022/07/09 01:04:06;;;;;;;2.67;1.40;;;22.60;60.50;;;;;;2091474;28;20029;-83
2022/07/09 01:05:08;;;;;;;2.75;1.52;;;22.60;60.60;;;;;;2099408;28;20024;-83
2022/07/09 01:06:09;;;;;;;2.25;1.40;;;22.60;60.50;;;;;;2100082;28;20052;-84
2022/07/09 01:07:10;;;;;;;2.15;1.30;;;22.60;60.50;;;;;;2101712;28;20039;-83
2022/07/09 01:08:11;;;;;;;2.33;1.50;;;22.60;60.50;;;;;;2091518;28;20025;-82
2022/07/09 01:09:13;;;;;;;4.68;1.35;;;22.60;60.50;;;;;;2099334;28;20036;-83
2022/07/09 01:10:14;;;;;;;3.40;1.25;;;22.60;60.50;;;;;;2100090;28;20066;-84
2022/07/09 01:11:15;;;;;;;2.53;1.27;;;22.60;61.30;;;;;;2098232;28;20028;-83
2022/07/09 01:12:16;;;;;;;2.08;1.02;;;22.60;60.60;;;;;;2091812;28;20461;-85
2022/07/09 01:13:17;;;;;;;2.40;1.20;;;22.60;60.60;;;;;;2085310;28;20030;-83
2022/07/09 01:14:19;;;;;;;1.65;1.40;;;22.60;60.40;;;;;;2093416;28;20356;-84
2022/07/09 01:15:19;;;;;;;1.98;1.38;;;22.60;60.60;;;;;;2099872;28;20036;-83
2022/07/09 01:16:20;;;;;;;2.87;1.30;;;22.60;60.50;;;;;;2094926;28;20024;-83
2022/07/09 01:17:21;;;;;;;2.20;1.30;;;22.60;60.50;;;;;;2091461;28;20025;-84
2022/07/09 01:18:22;;;;;;;1.77;1.20;;;22.60;60.60;;;;;;2082206;28;20021;-83
2022/07/09 01:19:23;;;;;;;2.45;1.35;;;22.60;60.50;;;;;;2091572;28;20328;-84
2022/07/09 01:20:25;;;;;;;2.13;1.27;;;22.60;60.60;;;;;;2099860;28;20025;-83
2022/07/09 01:21:26;;;;;;;1.85;1.20;;;22.50;60.60;;;;;;2094741;28;20017;-83
2022/07/09 01:22:27;;;;;;;2.63;1.30;;;22.60;60.60;;;;;;2091439;28;20485;-83
2022/07/09 01:23:28;;;;;;;2.67;1.17;;;22.50;60.70;;;;;;2091365;28;20261;-82
2022/07/09 01:24:29;;;;;;;2.67;1.33;;;22.50;60.70;;;;;;2090782;28;20463;-83
2022/07/09 01:25:46;;;;;;;1.60;1.30;;;22.50;60.70;;;;;;2091459;28;20025;-83
2022/07/09 01:26:47;;;;;;;2.95;1.50;;;22.50;60.70;;;;;;2087534;28;20144;-84
2022/07/09 01:27:48;;;;;;;4.63;1.70;;;22.50;60.70;;;;;;2083252;28;20045;-84
2022/07/09 01:28:49;;;;;;;1.50;1.27;;;22.50;60.70;;;;;;2091069;28;20052;-83
2022/07/09 01:29:50;;;;;;;2.88;1.40;;;22.50;60.70;;;;;;2083223;28;20025;-83
2022/07/09 01:30:51;;;;;;;3.63;1.53;;;22.50;60.70;;;;;;2083211;28;20463;-82
2022/07/09 01:31:51;;;;;;;2.27;1.53;;;22.50;60.80;;;;;;2087992;28;20450;-84
2022/07/09 01:32:53;;;;;;;3.53;1.60;;;22.50;60.80;;;;;;2083028;28;20116;-83
2022/07/09 01:33:54;;;;;;;;;;;22.50;60.80;;;;;;2097668;28;20028;-83
2022/07/09 01:34:55;;;;;;;1.90;1.25;;;22.50;60.80;;;;;;2091154;28;19909;-83
2022/07/09 01:35:55;;;;;;;3.40;1.50;;;22.50;60.80;;;;;;2091020;28;20028;-84
2022/07/09 01:36:56;;;;;;;4.53;1.93;;;22.40;60.90;;;;;;2092579;28;20098;-84
2022/07/09 01:37:57;;;;;;;2.30;1.40;;;22.40;61.10;;;;;;2099035;28;20020;-84
2022/07/09 01:38:58;;;;;;;1.87;1.20;;;22.40;61.10;;;;;;2095309;28;20430;-83
2022/07/09 01:39:59;;;;;;;2.03;1.30;;;22.40;61.00;;;;;;2091360;28;20072;-83
2022/07/09 01:40:59;;;;;;;2.70;1.47;;;22.40;61.10;;;;;;2099497;28;20454;-84
2022/07/09 01:42:00;;;;;;;2.50;1.40;;;22.40;61.10;;;;;;2083064;28;20026;-84
2022/07/09 01:43:01;;;;;;;2.23;1.27;;;22.40;61.10;;;;;;2097300;28;20021;-83
2022/07/09 01:44:02;;;;;;;3.33;1.20;;;22.40;60.80;;;;;;2099596;28;20035;-83
2022/07/09 01:45:03;;;;;;;1.30;1.00;;;22.40;60.90;;;;;;2090567;28;20025;-83
2022/07/09 01:46:04;;;;;;;1.58;1.20;;;22.40;61.00;;;;;;2091302;28;20459;-84
2022/07/09 01:47:05;;;;;;;2.57;1.20;;;22.40;61.00;;;;;;2087123;28;20040;-83
2022/07/09 01:48:06;;;;;;;1.87;1.10;;;22.40;61.00;;;;;;2091320;28;20059;-84
2022/07/09 01:49:06;;;;;;;2.10;1.50;;;22.40;61.10;;;;;;2077461;28;20049;-84
2022/07/09 01:50:08;;;;;;;1.63;1.30;;;22.40;61.00;;;;;;2074693;28;20468;-83
2022/07/09 01:51:09;;;;;;;1.63;1.20;;;22.40;61.00;;;;;;2092887;28;20047;-83
2022/07/09 01:52:10;;;;;;;1.48;1.08;;;22.40;61.00;;;;;;2099128;28;20033;-83
2022/07/09 01:53:11;;;;;;;1.90;1.10;;;22.30;61.00;;;;;;2091121;28;20119;-83
2022/07/09 01:54:11;;;;;;;3.10;1.37;;;22.30;61.20;;;;;;2089471;28;20043;-84
2022/07/09 01:55:12;;;;;;;2.00;1.10;;;22.30;61.10;;;;;;2082987;28;20037;-83
2022/07/09 01:56:13;;;;;;;2.10;1.30;;;22.30;61.10;;;;;;2082741;28;20053;-84
2022/07/09 01:57:14;;;;;;;1.70;1.17;;;22.30;61.10;;;;;;2093878;28;20024;-84
2022/07/09 01:58:15;;;;;;;3.53;1.40;;;22.30;61.20;;;;;;2107258;28;20617;-83
2022/07/09 01:59:15;;;;;;;1.83;1.30;;;22.30;61.10;;;;;;2090967;28;20356;-83
2022/07/09 02:00:18;;;;;;;2.13;1.10;;;22.30;61.20;;;;;;2091351;28;20103;-84
2022/07/09 02:01:20;;;;;;;1.73;1.00;;;22.30;61.20;;;;;;2091425;28;20099;-83
2022/07/09 02:02:21;;;;;;;1.45;1.10;;;22.30;61.20;;;;;;2091162;28;20286;-83
2022/07/09 02:03:22;;;;;;;1.80;1.00;;;22.30;61.10;;;;;;2091441;28;20032;-84
2022/07/09 02:04:23;;;;;;;2.20;1.20;;;22.30;61.20;;;;;;2103352;28;20075;-84
2022/07/09 02:05:24;;;;;;;2.27;1.30;;;22.20;61.20;;;;;;2099157;28;20029;-84
2022/07/09 02:06:25;;;;;;;3.50;1.30;;;22.20;61.20;;;;;;2099493;28;20028;-83
2022/07/09 02:07:26;;;;;;;3.57;1.10;;;22.20;61.20;;;;;;2099288;28;20033;-84
2022/07/09 02:08:26;;;;;;;1.77;1.20;;;22.20;61.20;;;;;;2091057;28;20056;-83
2022/07/09 02:09:27;;;;;;;2.47;1.30;;;22.20;61.20;;;;;;2090536;28;20053;-84
2022/07/09 02:10:28;;;;;;;1.80;1.30;;;22.20;61.20;;;;;;2091155;28;20040;-84
2022/07/09 02:11:29;;;;;;;1.77;1.50;;;22.20;61.10;;;;;;2090325;28;20041;-85
2022/07/09 02:12:30;;;;;;;2.53;1.30;;;22.20;61.10;;;;;;2080249;28;20083;-83
2022/07/09 02:13:31;;;;;;;2.40;1.30;;;22.20;61.10;;;;;;2074751;28;20046;-83
2022/07/09 02:14:31;;;;;;;2.53;1.30;;;22.20;61.20;;;;;;2093411;28;20166;-84
2022/07/09 02:15:33;;;;;;;1.90;1.10;;;22.20;61.30;;;;;;2107699;28;20081;-83
2022/07/09 02:16:33;;;;;;;1.10;0.90;;;22.20;61.30;;;;;;2091012;28;20029;-84
2022/07/09 02:17:34;;;;;;;3.47;1.30;;;22.20;61.50;;;;;;2078699;28;20324;-84
2022/07/09 02:18:35;;;;;;;2.67;1.27;;;22.10;61.40;;;;;;2091246;28;20091;-83
2022/07/09 02:19:36;;;;;;;2.87;1.47;;;22.20;61.50;;;;;;2087935;28;20037;-83
2022/07/09 02:20:37;;;;;;;3.43;1.27;;;22.10;61.20;;;;;;2082916;28;20478;-84
2022/07/09 02:21:38;;;;;;;3.08;1.40;;;22.10;61.40;;;;;;2098933;28;20081;-85
2022/07/09 02:22:39;;;;;;;2.97;1.67;;;22.10;61.50;;;;;;2091245;28;20098;-83
2022/07/09 02:23:40;;;;;;;1.73;1.27;;;22.10;61.50;;;;;;2082897;28;20056;-83
2022/07/09 02:24:40;;;;;;;3.27;1.40;;;22.10;61.40;;;;;;2086645;28;20044;-84
2022/07/09 02:25:41;;;;;;;2.33;1.50;;;22.10;61.50;;;;;;2074556;28;20471;-83
2022/07/09 02:26:42;;;;;;;2.23;1.27;;;22.10;61.60;;;;;;2097834;28;20024;-84
2022/07/09 02:27:43;;;;;;;2.63;1.50;;;22.10;61.30;;;;;;2092866;28;20047;-84
2022/07/09 02:28:43;;;;;;;3.07;1.30;;;22.00;61.60;;;;;;2090961;28;20037;-83
2022/07/09 02:29:44;;;;;;;2.33;1.40;;;22.00;61.70;;;;;;2090943;28;20044;-83
2022/07/09 02:30:45;;;;;;;1.93;1.30;;;22.00;61.60;;;;;;2082631;28;20033;-84
2022/07/09 02:31:46;;;;;;;3.60;1.40;;;22.00;61.60;;;;;;2097628;28;20032;-83
2022/07/09 02:32:47;;;;;;;2.60;1.30;;;22.00;61.60;;;;;;2090954;28;20039;-84
2022/07/09 02:33:47;;;;;;;2.87;1.47;;;22.00;61.60;;;;;;2090811;28;20454;-83
2022/07/09 02:34:48;;;;;;;2.97;1.67;;;22.00;61.60;;;;;;2099350;28;20473;-83
2022/07/09 02:35:49;;;;;;;5.00;1.53;;;22.00;61.60;;;;;;2091008;28;20037;-83
2022/07/09 02:36:51;;;;;;;2.43;1.33;;;22.00;61.50;;;;;;2090873;28;20592;-84
2022/07/09 02:37:51;;;;;;;3.03;1.30;;;22.00;61.60;;;;;;2090131;28;20119;-84
2022/07/09 02:38:53;;;;;;;2.17;1.40;;;22.00;61.70;;;;;;2082656;28;20097;-83
2022/07/09 02:39:53;;;;;;;2.55;1.52;;;22.00;61.70;;;;;;2090803;28;20413;-83
2022/07/09 02:40:54;;;;;;;2.20;1.20;;;22.00;61.80;;;;;;2091045;28;20087;-84
2022/07/09 02:41:55;;;;;;;3.10;1.57;;;21.90;61.70;;;;;;2082788;28;20021;-84
2022/07/09 02:42:56;;;;;;;4.30;1.60;;;21.90;61.70;;;;;;2075769;28;20022;-83
2022/07/09 02:43:56;;;;;;;2.33;1.40;;;21.90;61.80;;;;;;2090866;28;20108;-83
2022/07/09 02:44:57;;;;;;;3.63;1.83;;;21.90;61.80;;;;;;2084630;28;20024;-83
2022/07/09 02:45:58;;;;;;;1.90;1.20;;;21.90;61.80;;;;;;2090921;28;20350;-84
2022/07/09 02:46:59;;;;;;;2.37;1.33;;;21.90;61.80;;;;;;2091043;28;20478;-83
2022/07/09 02:47:59;;;;;;;4.33;1.43;;;21.90;61.80;;;;;;2090782;28;20430;-84
2022/07/09 02:49:00;;;;;;;2.67;1.30;;;21.90;61.80;;;;;;2090663;28;20029;-84
2022/07/09 02:50:01;;;;;;;2.30;1.07;;;21.90;61.70;;;;;;2084558;28;20070;-83
2022/07/09 02:51:03;;;;;;;2.47;1.40;;;21.90;61.80;;;;;;2090246;28;20033;-83
2022/07/09 02:52:04;;;;;;;2.10;1.42;;;21.90;61.90;;;;;;2088323;28;20095;-83
2022/07/09 02:53:05;;;;;;;1.83;1.30;;;21.90;61.90;;;;;;2082748;28;20033;-83
2022/07/09 02:54:06;;;;;;;5.70;1.50;;;21.90;61.90;;;;;;2082943;28;20029;-84
2022/07/09 02:55:07;;;;;;;2.83;1.40;;;21.90;61.80;;;;;;2090753;28;20028;-84
2022/07/09 02:56:08;;;;;;;2.38;1.50;;;21.90;61.90;;;;;;2098526;28;20062;-82
2022/07/09 02:57:09;;;;;;;3.60;1.60;;;21.90;62.00;;;;;;2082517;28;20029;-83
2022/07/09 02:58:10;;;;;;;2.47;1.40;;;21.90;61.90;;;;;;2098279;28;20043;-83
2022/07/09 02:59:11;;;;;;;3.38;1.70;;;21.90;61.90;;;;;;2098785;28;20056;-84
2022/07/09 03:00:12;;;;;;;2.67;1.43;;;21.90;62.00;;;;;;2099038;28;20090;-83
2022/07/09 03:01:13;;;;;;;1.50;1.10;;;21.90;62.00;;;;;;2098898;28;20020;-84
2022/07/09 03:02:13;;;;;;;2.07;1.40;;;21.90;62.00;;;;;;2087687;28;20033;-84
2022/07/09 03:03:15;;;;;;;4.27;1.40;;;21.80;62.00;;;;;;2090728;28;20069;-83
2022/07/09 03:04:15;;;;;;;3.13;1.40;;;21.80;62.10;;;;;;2089506;28;20024;-83
2022/07/09 03:05:16;;;;;;;2.27;1.23;;;21.80;62.10;;;;;;2099357;28;20025;-84
2022/07/09 03:06:17;;;;;;;5.40;2.20;;;21.90;62.10;;;;;;2099044;28;20024;-84
2022/07/09 03:07:18;;;;;;;3.57;1.57;;;21.80;62.10;;;;;;2095657;28;20059;-83
2022/07/09 03:08:21;;;;;;;3.40;1.30;;;21.80;62.10;;;;;;2090499;28;20044;-84
2022/07/09 03:09:22;;;;;;;2.13;1.40;;;21.80;62.10;;;;;;2098480;28;20070;-84
2022/07/09 03:10:23;;;;;;;6.23;1.10;;;21.80;62.10;;;;;;2082577;28;20261;-83
2022/07/09 03:11:24;;;;;;;3.40;1.43;;;21.80;62.10;;;;;;2090252;28;20479;-84
2022/07/09 03:12:24;;;;;;;2.73;1.53;;;21.80;62.20;;;;;;2087362;28;20292;-84
2022/07/09 03:13:25;;;;;;;2.47;1.30;;;21.80;62.30;;;;;;2090880;28;20033;-83
2022/07/09 03:14:27;;;;;;;2.00;1.10;;;21.80;62.30;;;;;;2098248;28;20032;-84
2022/07/09 03:15:27;;;;;;;3.08;1.42;;;21.70;62.30;;;;;;2099102;28;20056;-84
2022/07/09 03:16:28;;;;;;;2.67;1.40;;;21.80;62.40;;;;;;2082583;28;20030;-85
2022/07/09 03:17:29;;;;;;;1.97;1.30;;;21.80;62.30;;;;;;2078674;28;20044;-84
2022/07/09 03:18:31;;;;;;;3.67;1.43;;;21.80;62.30;;;;;;2089970;28;20455;-84
2022/07/09 03:19:32;;;;;;;2.42;1.30;;;21.80;62.30;;;;;;2089769;28;20356;-84
2022/07/09 03:20:32;;;;;;;3.27;1.27;;;21.80;62.30;;;;;;2076137;28;20054;-84
2022/07/09 03:21:33;;;;;;;2.53;1.53;;;21.70;62.40;;;;;;2082446;28;20456;-84
2022/07/09 03:22:35;;;;;;;1.70;1.50;;;21.80;62.50;;;;;;2086181;28;20047;-84
2022/07/09 03:23:36;;;;;;;4.18;1.45;;;21.70;62.40;;;;;;2082501;28;20037;-83
2022/07/09 03:24:36;;;;;;;1.70;1.33;;;21.70;62.50;;;;;;2090048;28;20032;-83
2022/07/09 03:25:38;;;;;;;1.80;1.23;;;21.70;62.50;;;;;;2092324;28;20025;-84
2022/07/09 03:26:38;;;;;;;4.32;1.35;;;21.70;63.30;;;;;;2090772;28;20106;-83
2022/07/09 03:27:39;;;;;;;3.73;1.40;;;21.70;62.50;;;;;;2090885;28;20505;-84
2022/07/09 03:28:40;;;;;;;2.80;1.37;;;21.70;62.50;;;;;;2082651;28;20022;-83
2022/07/09 03:29:41;;;;;;;2.77;1.23;;;21.70;62.50;;;;;;2082432;28;20022;-84
2022/07/09 03:30:41;;;;;;;2.13;1.30;;;21.70;62.50;;;;;;2090706;28;20025;-84
2022/07/09 03:31:42;;;;;;;2.03;1.30;;;21.70;62.50;;;;;;2081709;28;20025;-83
2022/07/09 03:32:43;;;;;;;2.10;1.33;;;21.60;62.50;;;;;;2090409;28;20025;-84
2022/07/09 03:33:44;;;;;;;3.23;1.50;;;21.60;62.60;;;;;;2098866;28;20024;-84
2022/07/09 03:34:44;;;;;;;2.53;1.33;;;21.70;62.60;;;;;;2090568;28;20367;-84
2022/07/09 03:35:45;;;;;;;1.40;1.17;;;21.60;62.70;;;;;;2090580;28;20049;-83
2022/07/09 03:36:46;;;;;;;2.33;1.20;;;21.60;62.60;;;;;;2082269;28;20067;-84
2022/07/09 03:37:47;;;;;;;8.07;2.17;;;21.60;62.60;;;;;;2093429;28;20021;-84
2022/07/09 03:38:47;;;;;;;2.67;1.43;;;21.60;62.60;;;;;;2090791;28;20025;-83
2022/07/09 03:39:48;;;;;;;2.57;1.53;;;21.60;62.60;;;;;;2097180;28;20080;-84
2022/07/09 03:40:49;;;;;;;2.03;1.20;;;21.60;62.60;;;;;;2091342;28;20071;-84
2022/07/09 03:41:50;;;;;;;1.80;1.15;;;21.70;62.70;;;;;;2090643;28;20052;-83
2022/07/09 03:42:51;;;;;;;2.37;1.33;;;21.60;62.60;;;;;;2082271;28;20083;-84
2022/07/09 03:43:52;;;;;;;2.23;1.20;;;21.60;62.70;;;;;;2089062;28;20033;-82
2022/07/09 03:44:53;;;;;;;2.53;1.60;;;21.60;62.70;;;;;;2089635;28;20029;-84
2022/07/09 03:45:54;;;;;;;1.80;1.27;;;21.60;62.70;;;;;;2090633;28;20446;-84
2022/07/09 03:46:55;;;;;;;2.03;1.50;;;21.60;62.70;;;;;;2095571;28;20396;-84
2022/07/09 03:47:56;;;;;;;2.27;1.50;;;21.60;62.70;;;;;;2098980;28;20040;-85
2022/07/09 03:48:57;;;;;;;5.17;1.20;;;21.60;62.90;;;;;;2084594;28;20033;-84
2022/07/09 03:49:57;;;;;;;2.40;1.40;;;21.60;62.80;;;;;;2082309;28;20083;-83
2022/07/09 03:50:58;;;;;;;1.80;1.23;;;21.60;62.80;;;;;;2081811;28;20064;-83
2022/07/09 03:51:59;;;;;;;3.17;1.60;;;21.50;62.80;;;;;;2093490;28;20029;-83
2022/07/09 03:53:00;;;;;;;2.65;1.42;;;21.60;62.90;;;;;;2082392;28;20033;-83
2022/07/09 03:54:01;;;;;;;3.77;1.53;;;21.50;62.80;;;;;;2089732;28;20045;-84
2022/07/09 03:55:02;;;;;;;2.83;1.43;;;21.50;62.90;;;;;;2082280;28;20417;-83
2022/07/09 03:56:03;;;;;;;2.63;1.30;;;21.50;62.90;;;;;;2090374;28;20057;-84
2022/07/09 03:57:04;;;;;;;3.08;1.30;;;21.50;62.90;;;;;;2090469;28;20033;-83
2022/07/09 03:58:05;;;;;;;2.42;1.40;;;21.50;62.90;;;;;;2085742;28;20025;-83
2022/07/09 03:59:06;;;;;;;2.17;1.50;;;21.50;63.00;;;;;;2090476;28;20029;-83
2022/07/09 04:00:07;;;;;;;1.60;1.30;;;21.50;63.10;;;;;;2100474;28;20123;-84
2022/07/09 04:01:17;;;;;;;2.58;1.45;;;21.50;63.20;;;;;;2098930;28;20406;-83
2022/07/09 04:02:18;;;;;;;4.30;1.50;;;21.50;63.10;;;;;;2090488;28;20341;-83
2022/07/09 04:03:19;;;;;;;6.63;1.37;;;21.50;63.10;;;;;;2089043;28;20411;-84
2022/07/09 04:04:20;;;;;;;2.20;1.63;;;21.50;63.10;;;;;;2089872;28;20044;-83
2022/07/09 04:05:20;;;;;;;3.00;1.30;;;21.50;63.20;;;;;;2082216;28;20059;-84
2022/07/09 04:06:21;;;;;;;5.37;1.40;;;21.50;63.20;;;;;;2082237;28;20095;-84
2022/07/09 04:07:22;;;;;;;2.47;1.30;;;21.50;63.20;;;;;;2085086;28;20068;-83
2022/07/09 04:08:23;;;;;;;2.70;1.30;;;21.50;63.10;;;;;;2090692;28;20025;-83
2022/07/09 04:09:24;;;;;;;3.40;1.50;;;21.40;63.10;;;;;;2098594;28;20089;-84
2022/07/09 04:10:25;;;;;;;2.03;1.33;;;21.40;63.10;;;;;;2082240;28;20030;-84
2022/07/09 04:11:26;;;;;;;2.03;1.27;;;21.40;63.10;;;;;;2073433;28;20041;-83
2022/07/09 04:12:26;;;;;;;4.97;1.57;;;21.40;63.10;;;;;;2087238;28;20025;-84
2022/07/09 04:13:27;;;;;;;1.67;1.23;;;21.40;63.20;;;;;;2082365;28;20025;-83
2022/07/09 04:14:28;;;;;;;3.33;1.70;;;21.40;63.30;;;;;;2098406;28;20034;-84
2022/07/09 04:15:29;;;;;;;2.70;1.70;;;21.40;63.30;;;;;;2090325;28;20410;-83
2022/07/09 04:16:30;;;;;;;2.03;1.50;;;21.40;63.40;;;;;;2090679;28;20544;-82
2022/07/09 04:17:30;;;;;;;2.30;1.50;;;21.40;63.30;;;;;;2091726;28;20100;-84
2022/07/09 04:18:31;;;;;;;2.60;1.50;;;21.40;63.30;;;;;;2090002;28;20032;-85
2022/07/09 04:19:32;;;;;;;2.33;1.40;;;21.40;63.40;;;;;;2090468;28;20393;-83
2022/07/09 04:20:33;;;;;;;2.20;1.20;;;21.40;63.50;;;;;;2090833;28;20021;-84
2022/07/09 04:21:33;;;;;;;2.93;1.53;;;21.40;63.40;;;;;;2100162;28;20055;-84
2022/07/09 04:22:34;;;;;;;3.33;1.50;;;21.40;63.40;;;;;;2091895;28;20044;-83
2022/07/09 04:23:36;;;;;;;2.63;1.80;;;21.40;63.40;;;;;;2092123;28;20043;-84
2022/07/09 04:24:36;;;;;;;4.45;1.50;;;21.40;63.30;;;;;;2091252;28;20382;-83
2022/07/09 04:25:37;;;;;;;2.60;1.43;;;21.40;63.50;;;;;;2091781;28;20021;-83
2022/07/09 04:26:38;;;;;;;1.90;1.30;;;21.40;63.50;;;;;;2100267;28;20074;-83
2022/07/09 04:27:39;;;;;;;2.17;1.50;;;21.30;63.30;;;;;;2096249;28;20531;-84
2022/07/09 04:28:39;;;;;;;2.87;1.70;;;21.30;63.50;;;;;;2083693;28;20029;-84
2022/07/09 04:29:40;;;;;;;3.60;1.53;;;21.30;63.40;;;;;;2091913;28;20067;-85
2022/07/09 04:30:41;;;;;;;2.97;1.50;;;21.30;63.50;;;;;;2090609;28;20067;-84
2022/07/09 04:31:42;;;;;;;3.17;1.80;;;21.30;63.50;;;;;;2091091;28;20060;-84
2022/07/09 04:32:43;;;;;;;4.53;1.93;;;21.30;63.60;;;;;;2083629;28;20029;-85
2022/07/09 04:33:44;;;;;;;2.37;1.60;;;21.30;63.60;;;;;;2083607;28;20026;-84
2022/07/09 04:34:45;;;;;;;4.85;1.65;;;21.30;63.60;;;;;;2091956;28;20063;-84
2022/07/09 04:35:46;;;;;;;2.50;1.70;;;21.30;63.60;;;;;;2091810;28;20407;-84
2022/07/09 04:36:47;;;;;;;2.33;1.50;;;21.30;63.50;;;;;;2083638;28;20037;-84
2022/07/09 04:37:48;;;;;;;3.97;1.47;;;21.30;63.70;;;;;;2082869;28;20072;-83
2022/07/09 04:38:48;;;;;;;2.70;1.70;;;21.20;63.60;;;;;;2075628;28;20468;-83
2022/07/09 04:39:49;;;;;;;2.33;1.60;;;21.30;63.70;;;;;;2082042;28;20037;-83
2022/07/09 04:40:50;;;;;;;2.67;1.63;;;21.30;63.70;;;;;;2090922;28;20033;-84
2022/07/09 04:41:51;;;;;;;2.60;1.80;;;21.30;63.70;;;;;;2083641;28;20567;-83
2022/07/09 04:42:52;;;;;;;4.80;1.60;;;21.20;63.70;;;;;;2083869;28;20029;-83
2022/07/09 04:43:53;;;;;;;3.03;1.80;;;21.20;64.50;;;;;;2091450;28;20106;-83
2022/07/09 04:44:54;;;;;;;2.57;1.70;;;21.20;63.80;;;;;;2082769;28;20033;-83
2022/07/09 04:45:54;;;;;;;3.93;1.60;;;21.20;63.80;;;;;;2083349;28;20120;-84
2022/07/09 04:46:55;;;;;;;4.17;1.70;;;21.20;63.90;;;;;;2088509;28;20084;-84
2022/07/09 04:47:58;;;;;;;4.83;2.03;;;21.20;63.90;;;;;;2091945;28;20082;-84
2022/07/09 04:48:59;;;;;;;3.20;1.70;;;21.20;63.90;;;;;;2092166;28;20025;-83
2022/07/09 04:50:00;;;;;;;3.28;2.08;;;21.20;64.00;;;;;;2085843;28;20266;-84
2022/07/09 04:51:00;;;;;;;4.03;1.80;;;21.20;64.00;;;;;;2082939;28;20105;-85
2022/07/09 04:52:01;;;;;;;2.37;2.00;;;21.20;64.00;;;;;;2083431;28;20051;-83
2022/07/09 04:53:02;;;;;;;4.13;1.70;;;21.20;64.10;;;;;;2083492;28;20455;-84
2022/07/09 04:54:03;;;;;;;2.73;1.63;;;21.20;64.10;;;;;;2083515;28;20379;-83
2022/07/09 04:55:05;;;;;;;3.77;2.10;;;21.20;64.10;;;;;;2091553;28;20025;-83
2022/07/09 04:56:06;;;;;;;;;;;21.10;64.10;;;;;;2091770;28;20083;-84
2022/07/09 04:57:07;;;;;;;4.63;1.83;;;21.20;64.20;;;;;;2080260;28;19913;-83
2022/07/09 04:58:09;;;;;;;3.95;2.15;;;21.10;64.20;;;;;;2082806;28;20346;-84
2022/07/09 04:59:09;;;;;;;5.00;2.25;;;21.10;64.10;;;;;;2091234;28;20025;-84
2022/07/09 05:00:11;;;;;;;3.60;2.33;;;21.10;64.20;;;;;;2083200;28;20486;-84
2022/07/09 05:01:12;;;;;;;;;;;21.10;64.30;;;;;;2092322;28;20035;-83
2022/07/09 05:02:13;;;;;;;3.97;2.35;;;21.10;64.40;;;;;;2100076;28;20262;-84
2022/07/09 05:03:14;;;;;;;3.10;1.95;;;21.10;64.40;;;;;;2100145;28;20021;-84
2022/07/09 05:04:15;;;;;;;2.80;1.80;;;21.10;64.40;;;;;;2074937;28;20356;-84
2022/07/09 05:05:16;;;;;;;5.63;2.20;;;21.10;64.40;;;;;;2077289;28;20050;-84
2022/07/09 05:06:18;;;;;;;4.27;2.27;;;21.10;64.40;;;;;;2091669;28;20029;-84
2022/07/09 05:07:19;;;;;;;2.58;1.88;;;21.10;64.40;;;;;;2099940;28;20029;-83
2022/07/09 05:08:20;;;;;;;4.67;2.17;;;21.10;64.40;;;;;;2083636;28;20037;-83
2022/07/09 05:09:20;;;;;;;4.90;2.27;;;21.10;64.40;;;;;;2091548;28;20057;-84
2022/07/09 05:10:21;;;;;;;3.13;2.03;;;21.10;64.50;;;;;;2091503;28;20120;-84
2022/07/09 05:11:22;;;;;;;5.70;2.40;;;21.10;65.40;;;;;;2099458;28;20089;-84
2022/07/09 05:12:23;;;;;;;3.33;2.40;;;21.10;64.70;;;;;;2091602;28;20428;-83
2022/07/09 05:13:23;;;;;;;8.70;2.27;;;21.10;64.60;;;;;;2091710;28;20029;-84
2022/07/09 05:14:24;;;;;;;4.60;2.37;;;21.10;64.60;;;;;;2091537;28;20098;-84
2022/07/09 05:15:25;;;;;;;3.57;2.17;;;21.10;64.70;;;;;;2081718;28;20025;-84
2022/07/09 05:16:26;;;;;;;5.50;2.60;;;21.10;64.80;;;;;;2085264;28;20090;-84
2022/07/09 05:17:26;;;;;;;7.30;2.80;;;21.10;64.70;;;;;;2099756;28;20104;-84
2022/07/09 05:18:29;;;;;;;4.30;2.37;;;21.10;64.80;;;;;;2082759;28;20045;-85